Time;durP1;ratioP1;P1;durP2;ratioP2;P2;SDS_P1;SDS_P2;PMS_P1;PMS_P2;Temp;Humidity;BMP_temperature;BMP_pressure;BME280_temperature;BME280_humidity;BME280_pressure;Samples;Min_cycle;Max_cycle;Signal;HPM_P1;HPM_P2
2021/10/01 00:04:03;;;;;;;1.63;0.50;;;13.10;99.90;;;;;;20580716;28;20042;-83
2021/10/01 00:14:04;;;;;;;3.33;1.40;;;13.20;99.90;;;;;;20584828;28;20082;-84
2021/10/01 00:24:08;;;;;;;1.73;0.30;;;13.20;99.90;;;;;;20583018;28;20055;-82
2021/10/01 00:34:09;;;;;;;1.05;0.40;;;13.30;99.90;;;;;;20579376;28;20471;-83
2021/10/01 00:44:10;;;;;;;1.23;0.50;;;13.30;99.90;;;;;;20563886;28;20058;-84
2021/10/01 00:54:11;;;;;;;2.30;0.60;;;13.40;99.90;;;;;;20490397;28;20047;-84
2021/10/01 01:04:16;;;;;;;1.33;0.43;;;13.50;99.90;;;;;;20552494;28;21291;-83
2021/10/01 01:14:41;;;;;;;1.45;0.40;;;13.40;99.90;;;;;;20563612;28;20055;-82
2021/10/01 01:24:51;;;;;;;1.90;0.40;;;13.40;99.90;;;;;;20566839;28;20049;-83
2021/10/01 01:35:02;;;;;;;1.52;0.30;;;13.10;99.90;;;;;;20554642;28;20059;-83
2021/10/01 01:45:04;;;;;;;2.08;0.40;;;13.20;99.90;;;;;;20569838;28;20054;-82
2021/10/01 01:55:06;;;;;;;1.20;0.40;;;13.10;99.90;;;;;;20563299;28;20064;-82
2021/10/01 02:05:09;;;;;;;0.70;0.32;;;13.00;99.90;;;;;;20544621;28;20059;-82
2021/10/01 02:15:11;;;;;;;2.05;0.75;;;13.00;99.90;;;;;;20559170;28;20049;-82
2021/10/01 02:35:32;;;;;;;1.58;0.52;;;12.70;99.90;;;;;;20548688;28;20545;-84
2021/10/01 02:45:34;;;;;;;1.15;0.40;;;12.70;99.90;;;;;;20535485;28;20050;-83
2021/10/01 02:55:50;;;;;;;1.77;0.52;;;12.60;99.90;;;;;;20495726;28;20099;-82
2021/10/01 03:05:54;;;;;;;1.10;0.43;;;12.60;99.90;;;;;;20583153;28;20055;-83
2021/10/01 03:16:00;;;;;;;3.97;0.52;;;12.50;99.90;;;;;;20557269;28;20042;-83
2021/10/01 03:26:01;;;;;;;1.88;0.22;;;12.40;99.90;;;;;;20564374;28;20165;-83
2021/10/01 03:36:04;;;;;;;2.40;0.28;;;12.40;99.90;;;;;;20517928;28;20070;-83
2021/10/01 03:46:06;;;;;;;1.77;0.63;;;12.40;99.90;;;;;;20640409;28;20046;-83
2021/10/01 03:56:16;;;;;;;6.00;0.70;;;12.30;99.90;;;;;;20572406;28;20059;-83
2021/10/01 04:06:17;;;;;;;1.77;0.70;;;12.20;99.90;;;;;;20605225;28;20047;-82
2021/10/01 04:16:18;;;;;;;2.53;0.70;;;12.30;99.90;;;;;;20627485;28;20042;-82
2021/10/01 04:26:19;;;;;;;2.63;0.50;;;12.30;99.90;;;;;;20595865;28;20725;-83
2021/10/01 04:36:22;;;;;;;2.80;0.30;;;12.40;99.90;;;;;;20568545;28;20060;-83
2021/10/01 04:46:23;;;;;;;1.13;0.25;;;12.40;99.90;;;;;;20542451;28;20046;-82
2021/10/01 04:56:24;;;;;;;2.45;0.45;;;12.40;99.90;;;;;;20578583;28;20608;-81
2021/10/01 05:06:25;;;;;;;2.47;0.40;;;12.60;99.90;;;;;;20566355;28;20051;-82
2021/10/01 05:16:26;;;;;;;3.88;0.40;;;12.50;99.90;;;;;;20535482;28;20506;-83
2021/10/01 05:26:28;;;;;;;2.83;0.40;;;12.50;99.90;;;;;;20558189;28;20053;-83
2021/10/01 05:36:29;;;;;;;3.08;0.40;;;12.40;99.90;;;;;;20522200;28;20044;-83
2021/10/01 05:46:30;;;;;;;3.67;0.63;;;12.30;99.90;;;;;;20607948;28;20042;-82
2021/10/01 05:56:32;;;;;;;2.03;0.60;;;12.20;99.90;;;;;;20611987;28;20668;-82
2021/10/01 06:06:33;;;;;;;1.60;0.60;;;12.30;99.90;;;;;;20562780;28;20628;-83
2021/10/01 06:16:34;;;;;;;1.40;0.52;;;12.30;99.90;;;;;;20555779;28;20034;-82
2021/10/01 06:26:36;;;;;;;0.50;0.22;;;12.30;99.90;;;;;;20569034;28;20046;-82
2021/10/01 06:36:38;;;;;;;2.10;0.30;;;12.20;99.90;;;;;;20521411;28;20067;-82
2021/10/01 06:46:55;;;;;;;1.33;0.75;;;12.20;99.90;;;;;;20585072;28;20050;-82
2021/10/01 08:19:49;;;;;;;7.50;0.45;;;13.30;99.90;;;;;;20619003;28;20502;-81
2021/10/01 08:29:52;;;;;;;4.38;1.25;;;13.40;99.90;;;;;;20602996;28;20054;-82
2021/10/01 08:39:54;;;;;;;1.05;0.20;;;13.60;99.90;;;;;;20629527;28;20509;-83
2021/10/01 08:49:59;;;;;;;0.50;0.22;;;13.70;99.90;;;;;;20583876;28;20149;-82
2021/10/01 09:00:03;;;;;;;2.67;0.88;;;13.90;99.90;;;;;;20588584;28;20059;-83
2021/10/01 09:10:11;;;;;;;1.42;0.60;;;14.00;99.90;;;;;;20623428;28;20571;-82
2021/10/01 09:20:15;;;;;;;0.90;0.10;;;14.30;99.90;;;;;;20583670;28;20071;-82
2021/10/01 09:30:20;;;;;;;1.70;0.30;;;14.70;99.90;;;;;;20624787;28;20136;-83
2021/10/01 09:40:21;;;;;;;3.78;0.50;;;14.80;99.90;;;;;;20595452;28;20145;-83
2021/10/01 09:50:27;;;;;;;3.38;0.40;;;14.90;99.90;;;;;;20590916;28;20502;-83
2021/10/01 10:00:30;;;;;;;2.63;0.43;;;14.80;99.90;;;;;;20614569;28;20088;-82
2021/10/01 10:10:44;;;;;;;2.75;0.77;;;14.90;99.90;;;;;;20595519;28;20071;-84
2021/10/01 10:20:45;;;;;;;1.73;0.40;;;14.90;99.90;;;;;;20564937;28;20058;-82
2021/10/01 10:30:53;;;;;;;2.42;0.63;;;14.60;99.90;;;;;;20596801;28;20114;-81
2021/10/01 10:40:54;;;;;;;1.95;0.40;;;14.30;99.90;;;;;;20572643;28;20640;-82
2021/10/01 10:50:57;;;;;;;1.98;0.95;;;13.80;99.90;;;;;;20607919;28;20679;-82
2021/10/01 11:01:13;;;;;;;3.13;0.55;;;13.40;99.90;;;;;;20567645;28;20137;-82
2021/10/01 11:11:32;;;;;;;3.65;0.50;;;13.40;99.90;;;;;;20617390;28;20042;-82
2021/10/01 11:21:36;;;;;;;4.55;0.52;;;13.50;99.90;;;;;;20536303;28;20120;-82
2021/10/01 11:31:41;;;;;;;3.33;0.90;;;13.70;99.90;;;;;;20561043;28;20041;-83
2021/10/01 11:41:44;;;;;;;1.55;0.38;;;13.80;99.90;;;;;;20599104;28;20055;-83
2021/10/01 11:52:01;;;;;;;1.80;0.82;;;14.10;99.90;;;;;;20570615;28;20157;-85
2021/10/01 12:02:02;;;;;;;9.93;1.10;;;14.40;99.90;;;;;;20576603;28;20062;-84
2021/10/01 12:12:08;;;;;;;1.00;0.45;;;14.50;99.90;;;;;;20554972;28;20078;-83
2021/10/01 12:22:12;;;;;;;1.23;0.30;;;14.50;99.90;;;;;;20565414;28;20179;-83
2021/10/01 12:32:16;;;;;;;4.82;0.60;;;14.60;99.90;;;;;;20514734;28;20051;-83
2021/10/01 12:42:30;;;;;;;1.95;0.35;;;14.70;99.90;;;;;;20562778;28;20059;-83
2021/10/01 12:52:32;;;;;;;0.85;0.30;;;15.00;99.90;;;;;;20551399;28;20386;-83
2021/10/01 13:02:41;;;;;;;3.40;0.93;;;15.10;99.90;;;;;;20575807;28;20047;-83
2021/10/01 13:13:17;;;;;;;5.70;0.95;;;15.10;99.90;;;;;;20517902;28;20511;-83
2021/10/01 13:23:34;;;;;;;2.13;0.38;;;15.20;99.90;;;;;;20571209;28;20076;-82
2021/10/01 13:33:35;;;;;;;2.17;0.45;;;15.30;99.90;;;;;;20561919;28;20042;-82
2021/10/01 13:43:38;;;;;;;2.35;0.98;;;15.40;99.90;;;;;;20550121;28;20059;-82
2021/10/01 13:53:40;;;;;;;3.13;0.65;;;15.20;99.90;;;;;;20531829;28;20058;-82
2021/10/01 14:03:41;;;;;;;1.42;0.60;;;15.20;99.90;;;;;;20548815;28;20054;-82
2021/10/01 14:13:42;;;;;;;1.75;0.52;;;15.20;99.90;;;;;;20592829;28;20043;-82
2021/10/01 14:23:45;;;;;;;3.55;0.50;;;15.30;99.90;;;;;;20568610;28;20081;-83
2021/10/01 14:33:46;;;;;;;3.08;0.55;;;15.40;99.90;;;;;;20551445;28;20053;-82
2021/10/01 14:43:48;;;;;;;1.42;0.45;;;15.50;99.90;;;;;;20552616;28;20067;-84
2021/10/01 14:53:50;;;;;;;2.17;0.35;;;15.60;99.90;;;;;;20558733;28;20050;-83
2021/10/01 15:03:52;;;;;;;1.25;0.43;;;15.50;99.90;;;;;;20571193;28;21097;-83
2021/10/01 15:13:53;;;;;;;0.90;0.40;;;15.20;99.90;;;;;;20563212;28;20049;-84
2021/10/01 15:23:54;;;;;;;2.20;0.60;;;14.90;99.90;;;;;;20583840;28;20088;-83
2021/10/01 15:33:55;;;;;;;4.32;0.98;;;14.50;99.90;;;;;;20596054;28;21524;-83
2021/10/01 15:43:56;;;;;;;5.28;0.85;;;14.10;99.90;;;;;;20586872;28;20063;-84
2021/10/01 15:53:57;;;;;;;3.55;1.38;;;14.00;99.90;;;;;;20512515;28;20048;-83
2021/10/01 16:03:58;;;;;;;1.33;0.70;;;13.90;99.90;;;;;;20527197;28;20265;-83
2021/10/01 16:14:00;;;;;;;4.35;0.70;;;13.80;99.90;;;;;;20562378;28;20055;-85
2021/10/01 16:24:01;;;;;;;1.98;0.95;;;13.80;99.90;;;;;;20583610;28;20061;-83
2021/10/01 16:34:02;;;;;;;3.45;1.08;;;13.80;99.90;;;;;;20554950;28;20047;-83
2021/10/01 16:44:09;;;;;;;1.83;0.88;;;13.70;99.90;;;;;;20558036;28;20129;-84
2021/10/01 16:54:15;;;;;;;2.60;0.95;;;13.60;99.90;;;;;;20546778;28;20059;-82
2021/10/01 17:04:16;;;;;;;2.58;0.95;;;13.50;99.90;;;;;;20550116;28;20055;-83
2021/10/01 17:14:18;;;;;;;6.28;1.20;;;13.40;99.90;;;;;;20575088;28;20061;-83
2021/10/01 17:24:19;;;;;;;5.18;1.10;;;13.30;99.90;;;;;;20528241;28;20062;-83
2021/10/01 17:34:20;;;;;;;6.75;1.10;;;13.30;99.90;;;;;;20491541;28;20046;-82
2021/10/01 17:44:26;;;;;;;5.93;1.02;;;13.30;99.90;;;;;;20504841;28;20046;-83
2021/10/01 17:54:27;;;;;;;7.45;1.70;;;13.30;99.90;;;;;;20534140;28;20053;-82
2021/10/01 18:04:29;;;;;;;4.30;2.10;;;13.30;99.90;;;;;;20532341;28;20041;-82
2021/10/01 18:14:30;;;;;;;4.63;1.42;;;13.40;99.90;;;;;;20542920;28;20043;-83
2021/10/01 18:24:31;;;;;;;4.00;1.95;;;13.40;99.90;;;;;;20504951;28;20055;-83
2021/10/01 18:34:33;;;;;;;5.63;1.77;;;13.40;99.90;;;;;;20501539;28;20560;-83
2021/10/01 18:44:34;;;;;;;4.85;2.03;;;13.40;99.90;;;;;;20543355;28;20057;-83
2021/10/01 18:54:38;;;;;;;3.50;1.80;;;13.40;99.90;;;;;;20526170;28;20060;-83
2021/10/01 19:04:39;;;;;;;8.23;1.90;;;13.50;99.90;;;;;;20531700;28;20422;-83
2021/10/01 19:14:40;;;;;;;4.53;1.90;;;13.40;99.90;;;;;;20498721;28;20077;-83
2021/10/01 19:24:50;;;;;;;5.13;2.03;;;13.50;99.90;;;;;;20541572;28;20138;-83
2021/10/01 19:34:51;;;;;;;5.13;1.85;;;13.50;99.90;;;;;;20511745;28;20408;-83
2021/10/01 19:44:52;;;;;;;5.72;2.05;;;13.60;99.90;;;;;;20532658;28;20059;-83
2021/10/01 19:54:53;;;;;;;5.53;2.22;;;13.70;99.90;;;;;;20566537;28;20071;-84
2021/10/01 20:04:54;;;;;;;6.75;2.92;;;13.70;99.90;;;;;;20588646;28;20078;-83
2021/10/01 20:14:55;;;;;;;7.72;2.63;;;13.70;99.90;;;;;;20581533;28;20431;-82
2021/10/01 20:25:15;;;;;;;10.13;3.45;;;13.80;99.90;;;;;;20544715;28;20056;-83
2021/10/01 20:56:03;;;;;;;6.50;2.90;;;13.70;99.90;;;;;;20587178;28;20058;-82
2021/10/01 21:47:20;;;;;;;11.63;3.15;;;14.00;99.90;;;;;;20635567;28;20080;-83
2021/10/01 21:57:21;;;;;;;8.07;3.10;;;13.90;99.90;;;;;;20531781;28;20061;-84
2021/10/01 22:28:04;;;;;;;8.23;3.65;;;13.90;99.90;;;;;;20540676;28;20533;-85
2021/10/01 22:38:08;;;;;;;7.18;3.90;;;13.90;99.90;;;;;;20529546;28;20043;-85
2021/10/01 22:48:18;;;;;;;7.40;3.95;;;13.90;99.90;;;;;;20513646;28;20050;-84
2021/10/01 22:58:19;;;;;;;10.95;3.58;;;13.90;99.90;;;;;;20567851;28;20058;-84
2021/10/01 23:08:21;;;;;;;7.93;3.08;;;13.80;99.90;;;;;;20564370;28;20426;-83
2021/10/01 23:50:50;;;;;;;6.15;2.88;;;13.80;99.90;;;;;;20567983;28;20498;-84
